Zebulon, North Carolina
Current Conditions -  °F | °C
As of 10:55 AM on Thursday 30 Oct 2014 (Local Time) from KLHZ Reporting Station
Clear Clear  
Wind Chill: 61°   Ceiling: Unl
Heat Index: 61°   Visibility: 10mi
Dew Point: 48°   Wind: 7mph
Humidity: 63%   Direction: 30°NNE
Pressure: 30.06"   Gusts: NA
Location:  35.82°N, 78.31°W
Report Text: KLHZ 301455Z AUTO 03006KT 10SM CLR 16/09 A3006 RMK AO2
Loading
Personal Weather Stations






























Interactive Weather Map
Tropical Storm Tracking
New forecast layout! Learn more

10-Day Weather Forecast

Advertisements
Track Severe Weather on mobile